createdAt,value
2017-10-24T00:00:57.190Z,13.55
2017-10-24T00:03:24.807Z,13.93
2017-10-24T00:05:52.434Z,14.05
2017-10-24T00:08:20.005Z,14.30
2017-10-24T00:10:47.623Z,12.32
2017-10-24T00:13:15.960Z,12.30
2017-10-24T00:15:43.583Z,14.27
2017-10-24T00:18:11.190Z,15.65
2017-10-24T00:20:38.810Z,14.95
2017-10-24T00:23:06.423Z,14.90
2017-10-24T00:25:33.996Z,15.82
2017-10-24T00:28:01.631Z,15.50
2017-10-24T00:30:29.258Z,15.18
2017-10-24T00:32:56.921Z,14.65
2017-10-24T00:35:24.540Z,14.45
2017-10-24T00:37:52.151Z,15.82
2017-10-24T00:40:19.729Z,17.10
2017-10-24T00:42:47.356Z,17.10
2017-10-24T00:45:15.006Z,16.48
2017-10-24T00:47:42.642Z,14.65
2017-10-24T00:50:10.251Z,15.88
2017-10-24T00:52:37.863Z,15.48
2017-10-24T00:55:05.441Z,15.32
2017-10-24T00:57:33.082Z,15.43
2017-10-24T01:00:00.684Z,15.23
2017-10-24T01:02:28.338Z,14.90
2017-10-24T01:04:55.909Z,15.45
2017-10-24T01:07:23.538Z,13.10
2017-10-24T01:09:51.934Z,13.65
2017-10-24T01:12:19.551Z,14.27
2017-10-24T01:14:47.162Z,14.50
2017-10-24T01:17:14.788Z,14.63
2017-10-24T01:19:42.432Z,14.20
2017-10-24T01:22:10.082Z,14.35
2017-10-24T01:24:37.692Z,13.80
2017-10-24T01:27:05.327Z,14.52
2017-10-24T01:29:32.955Z,14.02
2017-10-24T01:32:00.596Z,13.68
2017-10-24T01:34:28.204Z,13.07
2017-10-24T01:36:55.851Z,13.73
2017-10-24T01:39:23.472Z,12.80
2017-10-24T01:41:51.868Z,14.35
2017-10-24T01:44:19.479Z,12.27
2017-10-24T01:46:47.126Z,13.65
2017-10-24T01:49:14.719Z,11.95
2017-10-24T01:51:42.347Z,11.98
2017-10-24T01:54:10.072Z,12.88
2017-10-24T01:56:37.663Z,14.00
2017-10-24T01:59:05.248Z,12.65
2017-10-24T02:01:32.883Z,12.73
2017-10-24T02:04:00.523Z,13.45
2017-10-24T02:06:28.124Z,13.20
2017-10-24T02:08:55.772Z,13.43
2017-10-24T02:11:23.406Z,12.73
2017-10-24T02:13:51.050Z,13.07
2017-10-24T02:16:18.639Z,12.98
2017-10-24T02:18:46.278Z,13.32
2017-10-24T02:21:13.958Z,14.02
2017-10-24T02:23:41.538Z,13.60
2017-10-24T02:26:09.120Z,12.52
2017-10-24T02:28:36.779Z,13.05
2017-10-24T02:31:04.389Z,12.55
2017-10-24T02:33:32.013Z,13.35
2017-10-24T02:36:00.428Z,13.60
2017-10-24T02:38:28.053Z,14.32
2017-10-24T02:40:55.792Z,14.20
2017-10-24T02:43:23.408Z,13.88
2017-10-24T02:45:51.101Z,12.43
2017-10-24T02:48:18.731Z,14.48
2017-10-24T02:50:46.352Z,17.45
2017-10-24T02:53:13.932Z,16.23
2017-10-24T02:55:41.587Z,16.35
2017-10-24T02:58:09.223Z,15.88
2017-10-24T03:00:36.838Z,15.25
2017-10-24T03:03:04.448Z,13.95
2017-10-24T03:05:32.070Z,16.50
2017-10-24T03:07:59.669Z,16.15
2017-10-24T03:10:27.294Z,15.60
2017-10-24T03:12:54.906Z,16.87
2017-10-24T03:15:22.529Z,17.25
2017-10-24T03:17:50.154Z,14.93
2017-10-24T03:20:17.795Z,16.00
2017-10-24T03:22:45.436Z,13.73
2017-10-24T03:25:13.074Z,15.93
2017-10-24T03:27:40.664Z,14.32
2017-10-24T03:30:08.281Z,17.85
2017-10-24T03:32:35.875Z,17.02
2017-10-24T03:35:03.487Z,15.38
2017-10-24T03:37:31.876Z,17.10
2017-10-24T03:39:59.460Z,17.12
2017-10-24T03:42:27.083Z,17.10
2017-10-24T03:44:55.458Z,18.17
2017-10-24T03:47:23.842Z,17.30
2017-10-24T03:49:52.198Z,17.17
2017-10-24T03:52:19.780Z,18.35
2017-10-24T03:54:47.403Z,17.73
2017-10-24T03:57:15.085Z,16.10
2017-10-24T03:59:42.704Z,18.30
2017-10-24T04:02:10.300Z,17.50
2017-10-24T04:04:37.932Z,17.85
2017-10-24T04:07:05.519Z,19.17
2017-10-24T04:09:33.104Z,17.65
2017-10-24T04:12:01.494Z,18.10
2017-10-24T04:14:29.208Z,17.92
2017-10-24T04:16:56.884Z,17.62
2017-10-24T04:19:24.497Z,19.52
2017-10-24T04:21:52.130Z,18.65
2017-10-24T04:24:19.724Z,20.37
2017-10-24T04:26:47.361Z,18.27
2017-10-24T04:29:14.995Z,19.35
2017-10-24T04:31:42.683Z,20.55
2017-10-24T04:34:11.080Z,19.20
2017-10-24T04:36:38.715Z,19.33
2017-10-24T04:39:06.343Z,18.75
2017-10-24T04:41:33.980Z,18.75
2017-10-24T04:44:01.603Z,19.23
2017-10-24T04:46:29.218Z,21.87
2017-10-24T04:48:56.880Z,19.60
2017-10-24T04:51:24.495Z,20.88
2017-10-24T04:53:52.879Z,21.45
2017-10-24T04:56:21.358Z,20.20
2017-10-24T04:58:49.023Z,20.65
2017-10-24T05:01:16.658Z,19.37
2017-10-24T05:03:44.300Z,20.00
2017-10-24T05:06:11.960Z,20.60
2017-10-24T05:08:40.327Z,20.20
2017-10-24T05:11:09.139Z,18.02
2017-10-24T05:13:37.695Z,19.20
2017-10-24T05:16:06.461Z,18.30
2017-10-24T05:18:34.931Z,20.88
2017-10-24T05:21:03.433Z,18.65
2017-10-24T05:23:31.935Z,19.50
2017-10-24T05:26:00.137Z,18.90
2017-10-24T05:28:29.352Z,19.55
2017-10-24T05:30:57.844Z,19.23
2017-10-24T05:33:26.240Z,18.90
2017-10-24T05:35:55.669Z,18.60
2017-10-24T05:38:24.399Z,19.83
2017-10-24T05:40:52.608Z,22.13
2017-10-24T05:43:20.806Z,20.70
2017-10-24T05:45:50.182Z,19.20
2017-10-24T05:48:19.440Z,16.62
2017-10-24T05:50:48.229Z,16.08
2017-10-24T05:53:18.649Z,13.98
2017-10-24T05:55:48.073Z,15.43
2017-10-24T05:58:16.453Z,13.88
2017-10-24T06:00:44.769Z,13.70
2017-10-24T06:03:12.833Z,12.52
2017-10-24T06:05:40.983Z,12.32
2017-10-24T06:08:09.364Z,13.13
2017-10-24T06:10:37.621Z,12.15
2017-10-24T06:13:05.799Z,12.30
2017-10-24T06:15:34.945Z,11.25
2017-10-24T06:18:03.334Z,11.65
2017-10-24T06:20:31.563Z,10.98
2017-10-24T06:23:01.223Z,9.75
2017-10-24T06:25:29.471Z,8.95
2017-10-24T06:27:57.175Z,9.02
2017-10-24T06:30:25.740Z,7.53
2017-10-24T06:32:54.157Z,8.55
2017-10-24T06:35:21.923Z,7.35
2017-10-24T06:37:49.693Z,6.72
2017-10-24T06:40:18.185Z,7.45
2017-10-24T06:42:45.854Z,6.93
2017-10-24T06:45:14.204Z,6.55
2017-10-24T06:47:41.811Z,7.10
2017-10-24T06:50:09.686Z,6.78
2017-10-24T06:52:37.350Z,7.00
2017-10-24T06:55:05.019Z,7.87
2017-10-24T06:57:32.630Z,8.20
2017-10-24T07:00:00.795Z,8.52
2017-10-24T07:02:28.607Z,9.57
2017-10-24T07:04:56.310Z,10.15
2017-10-24T07:07:23.955Z,10.07
2017-10-24T07:09:51.537Z,12.90
2017-10-24T07:12:19.189Z,13.93
2017-10-24T07:14:46.816Z,13.80
2017-10-24T07:17:14.428Z,15.40
2017-10-24T07:19:42.057Z,16.42
2017-10-24T07:22:09.666Z,16.58
2017-10-24T07:24:37.283Z,15.90
2017-10-24T07:27:04.875Z,16.52
2017-10-24T07:29:32.963Z,16.23
2017-10-24T07:32:00.839Z,15.45
2017-10-24T07:34:28.464Z,16.60
2017-10-24T07:36:56.075Z,17.45
2017-10-24T07:39:23.654Z,17.05
2017-10-24T07:41:51.435Z,16.20
2017-10-24T07:44:19.026Z,18.40
2017-10-24T07:46:46.616Z,18.08
2017-10-24T07:49:14.619Z,19.20
2017-10-24T07:51:42.293Z,19.20
2017-10-24T07:54:09.866Z,20.10
2017-10-24T07:56:37.480Z,18.12
2017-10-24T07:59:05.111Z,20.17
2017-10-24T08:01:32.703Z,18.95
2017-10-24T08:04:00.310Z,21.27
2017-10-24T08:06:27.925Z,20.50
2017-10-24T08:08:55.558Z,21.12
2017-10-24T08:11:23.198Z,20.12
2017-10-24T08:13:50.812Z,21.15
2017-10-24T08:16:18.393Z,21.23
2017-10-24T08:18:46.023Z,19.67
2017-10-24T08:21:13.646Z,17.77
2017-10-24T08:23:41.278Z,18.95
2017-10-24T08:26:08.906Z,15.70
2017-10-24T08:28:36.532Z,17.67
2017-10-24T08:31:04.970Z,17.33
2017-10-24T08:33:32.620Z,18.27
2017-10-24T08:36:00.238Z,18.45
2017-10-24T08:38:28.026Z,16.75
2017-10-24T08:40:55.798Z,17.12
2017-10-24T08:43:23.398Z,15.95
2017-10-24T08:45:51.033Z,16.50
2017-10-24T08:48:18.651Z,16.00
2017-10-24T08:50:46.335Z,15.23
2017-10-24T08:53:13.978Z,15.32
2017-10-24T08:55:41.911Z,15.57
2017-10-24T08:58:09.670Z,16.15
2017-10-24T09:00:37.316Z,17.30
2017-10-24T09:03:04.967Z,17.58
2017-10-24T09:05:32.588Z,15.65
2017-10-24T09:08:00.231Z,17.50
2017-10-24T09:14:18.126Z,17.70
2017-10-24T09:16:58.272Z,17.27
2017-10-24T09:22:41.167Z,17.48
2017-10-24T09:25:08.785Z,17.83
2017-10-24T09:27:37.190Z,15.50
2017-10-24T09:30:04.818Z,14.95
2017-10-24T09:32:42.446Z,15.80
2017-10-24T09:35:10.088Z,16.33
2017-10-24T09:37:37.692Z,15.07
2017-10-24T09:40:05.610Z,15.48
2017-10-24T09:42:33.323Z,14.75
2017-10-24T09:45:00.966Z,14.90
2017-10-24T09:47:28.595Z,14.32
2017-10-24T09:49:57.773Z,14.95
2017-10-24T09:52:25.421Z,15.18
2017-10-24T09:54:53.035Z,15.65
2017-10-24T09:57:20.657Z,14.50
2017-10-24T09:59:51.894Z,16.23
2017-10-24T10:02:19.507Z,15.18
2017-10-24T10:04:47.089Z,15.18
2017-10-24T10:07:14.668Z,15.48
2017-10-24T10:09:42.291Z,15.30
2017-10-24T10:12:09.959Z,14.65
2017-10-24T10:14:37.583Z,15.75
2017-10-24T10:17:05.222Z,16.30
2017-10-24T10:19:32.822Z,15.65
2017-10-24T10:22:01.191Z,15.50
2017-10-24T10:24:32.352Z,15.82
2017-10-24T10:27:00.749Z,16.00
2017-10-24T10:29:28.378Z,15.88
2017-10-24T10:31:55.977Z,16.12
2017-10-24T10:34:23.598Z,14.95
2017-10-24T10:36:51.254Z,14.18
2017-10-24T10:39:18.901Z,14.80
2017-10-24T10:41:46.517Z,13.77
2017-10-24T10:44:14.166Z,13.75
2017-10-24T10:46:41.785Z,13.35
2017-10-24T10:49:09.403Z,14.00
2017-10-24T10:51:37.018Z,13.70
2017-10-24T10:54:04.597Z,13.18
2017-10-24T10:56:32.976Z,14.18
2017-10-24T10:59:01.384Z,14.20
2017-10-24T11:01:29.016Z,43.78
2017-10-24T11:03:56.596Z,20.48
2017-10-24T11:06:24.218Z,21.42
2017-10-24T11:08:51.845Z,40.97
2017-10-24T11:11:19.463Z,13.25
2017-10-24T11:13:47.079Z,13.90
2017-10-24T11:16:14.709Z,11.50
2017-10-24T11:18:42.392Z,12.95
2017-10-24T11:21:10.006Z,11.75
2017-10-24T11:23:38.383Z,12.27
2017-10-24T11:26:06.773Z,11.82
2017-10-24T11:28:35.169Z,12.02
2017-10-24T11:31:02.799Z,12.25
2017-10-24T11:33:30.455Z,10.77
2017-10-24T11:35:58.096Z,12.82
2017-10-24T11:38:25.727Z,10.73
2017-10-24T11:40:53.347Z,12.43
2017-10-24T11:43:21.810Z,11.68
2017-10-24T11:45:49.426Z,22.55
2017-10-24T11:48:17.072Z,11.85
2017-10-24T11:50:44.683Z,14.63
2017-10-24T11:53:12.293Z,11.45
2017-10-24T11:55:39.838Z,10.07
2017-10-24T11:58:07.459Z,22.40
2017-10-24T12:00:35.087Z,14.73
2017-10-24T12:03:02.704Z,13.60
2017-10-24T12:05:30.282Z,9.73
2017-10-24T12:07:58.658Z,11.82
2017-10-24T12:10:26.276Z,8.90
2017-10-24T12:12:53.894Z,10.05
2017-10-24T12:15:21.528Z,11.32
2017-10-24T12:17:49.157Z,18.55
2017-10-24T12:20:16.770Z,12.65
2017-10-24T12:22:44.386Z,7.93
2017-10-24T12:25:11.999Z,10.20
2017-10-24T12:27:40.415Z,23.00
2017-10-24T12:30:08.031Z,12.63
2017-10-24T12:32:36.435Z,9.23
2017-10-24T12:35:04.186Z,8.05
2017-10-24T12:37:31.816Z,7.72
2017-10-24T12:39:59.439Z,8.30
2017-10-24T12:42:27.054Z,9.57
2017-10-24T12:44:59.591Z,7.18
2017-10-24T12:47:27.226Z,7.20
2017-10-24T12:50:00.459Z,6.75
2017-10-24T12:52:28.052Z,6.85
2017-10-24T12:54:56.435Z,10.55
2017-10-24T12:57:34.741Z,10.85
2017-10-24T13:00:02.360Z,9.25
2017-10-24T13:02:29.943Z,9.70
2017-10-24T13:04:57.571Z,8.95
2017-10-24T13:07:25.194Z,10.13
2017-10-24T13:09:53.566Z,10.10
2017-10-24T13:12:21.161Z,8.25
2017-10-24T13:14:49.547Z,6.70
2017-10-24T13:17:17.934Z,6.60
2017-10-24T13:19:45.739Z,8.65
2017-10-24T13:22:13.349Z,6.93
2017-10-24T13:24:40.922Z,7.30
2017-10-24T13:27:08.491Z,6.75
2017-10-24T13:29:36.104Z,8.88
2017-10-24T13:32:03.693Z,8.30
2017-10-24T13:34:31.298Z,7.57
2017-10-24T13:36:58.903Z,7.80
2017-10-24T13:39:26.514Z,8.52
2017-10-24T13:41:54.134Z,8.77
2017-10-24T13:44:21.744Z,7.82
2017-10-24T13:46:49.351Z,7.85
2017-10-24T13:49:16.954Z,6.12
2017-10-24T13:51:44.525Z,5.90
2017-10-24T13:54:12.133Z,6.50
2017-10-24T13:56:39.738Z,6.00
2017-10-24T13:59:07.417Z,6.60
2017-10-24T14:01:35.000Z,6.10
2017-10-24T14:04:02.618Z,7.00
2017-10-24T14:06:35.900Z,6.53
2017-10-24T14:09:10.263Z,8.20
2017-10-24T14:11:38.634Z,9.30
2017-10-24T14:14:07.072Z,16.87
2017-10-24T14:16:34.682Z,8.25
2017-10-24T14:19:02.287Z,9.00
2017-10-24T14:21:29.920Z,9.55
2017-10-24T14:23:57.530Z,11.27
2017-10-24T14:26:25.138Z,8.80
2017-10-24T14:28:52.760Z,7.72
2017-10-24T14:31:20.378Z,8.38
2017-10-24T14:33:47.990Z,8.23
2017-10-24T14:36:15.604Z,8.65
2017-10-24T14:38:43.215Z,9.27
2017-10-24T14:41:10.882Z,9.18
2017-10-24T14:43:39.226Z,8.85
2017-10-24T14:46:06.790Z,7.60
2017-10-24T14:48:34.398Z,8.68
2017-10-24T14:51:03.173Z,8.02
2017-10-24T14:53:31.568Z,8.52
2017-10-24T14:55:59.951Z,10.57
2017-10-24T14:58:27.524Z,9.93
2017-10-24T15:00:55.093Z,9.27
2017-10-24T15:03:22.703Z,9.43
2017-10-24T15:05:50.356Z,8.65
2017-10-24T15:08:17.970Z,12.10
2017-10-24T15:10:45.600Z,11.27
2017-10-24T15:13:14.019Z,10.65
2017-10-24T15:15:41.600Z,10.85
2017-10-24T15:18:09.224Z,10.07
2017-10-24T15:20:36.841Z,10.80
2017-10-24T15:23:04.452Z,10.00
2017-10-24T15:25:32.077Z,10.20
2017-10-24T15:27:59.657Z,10.52
2017-10-24T15:30:27.279Z,9.55
2017-10-24T15:32:54.893Z,9.55
2017-10-24T15:35:22.638Z,8.82
2017-10-24T15:37:51.018Z,9.60
2017-10-24T15:40:19.442Z,8.30
2017-10-24T15:42:47.055Z,8.20
2017-10-24T15:45:14.678Z,8.70
2017-10-24T15:47:42.307Z,8.35
2017-10-24T15:50:09.883Z,8.98
2017-10-24T15:52:37.506Z,9.60
2017-10-24T15:55:05.087Z,15.80
2017-10-24T15:57:32.666Z,25.10
2017-10-24T16:00:00.244Z,21.80
2017-10-24T16:02:28.051Z,14.85
2017-10-24T16:04:55.646Z,12.63
2017-10-24T16:07:23.223Z,11.27
2017-10-24T16:09:50.849Z,11.10
2017-10-24T16:12:18.384Z,11.80
2017-10-24T16:14:45.999Z,13.62
2017-10-24T16:17:13.619Z,14.65
2017-10-24T16:19:41.235Z,15.48
2017-10-24T16:22:08.893Z,16.20
2017-10-24T16:24:36.468Z,28.20
2017-10-24T16:27:04.149Z,31.67
2017-10-24T16:29:32.546Z,37.78
2017-10-24T16:32:00.166Z,34.35
2017-10-24T16:34:28.473Z,32.30
2017-10-24T16:36:56.086Z,30.88
2017-10-24T16:39:23.702Z,25.52
2017-10-24T16:41:51.319Z,23.87
2017-10-24T16:44:18.958Z,23.42
2017-10-24T16:46:46.570Z,28.73
2017-10-24T16:49:14.908Z,25.40
2017-10-24T16:51:42.567Z,23.02
2017-10-24T16:54:10.185Z,23.38
2017-10-24T16:56:38.569Z,23.55
2017-10-24T16:59:06.140Z,22.33
2017-10-24T17:01:33.781Z,23.92
2017-10-24T17:04:02.184Z,24.15
2017-10-24T17:06:29.806Z,24.30
2017-10-24T17:09:05.946Z,23.45
2017-10-24T17:11:33.556Z,22.02
2017-10-24T17:14:01.175Z,21.33
2017-10-24T17:16:32.435Z,25.58
2017-10-24T17:19:00.005Z,23.92
2017-10-24T17:21:27.622Z,24.40
2017-10-24T17:23:55.234Z,25.80
2017-10-24T17:26:22.863Z,23.83
2017-10-24T17:28:50.447Z,24.30
2017-10-24T17:31:18.082Z,22.87
2017-10-24T17:33:45.654Z,22.77
2017-10-24T17:36:13.245Z,23.55
2017-10-24T17:38:40.869Z,21.23
2017-10-24T17:41:09.990Z,23.20
2017-10-24T17:43:38.378Z,23.33
2017-10-24T17:46:06.760Z,22.70
2017-10-24T17:48:34.426Z,22.65
2017-10-24T17:51:01.999Z,22.37
2017-10-24T17:53:29.613Z,22.80
2017-10-24T17:55:57.239Z,22.85
2017-10-24T17:58:24.946Z,21.17
2017-10-24T18:00:52.566Z,22.35
2017-10-24T18:03:20.206Z,23.08
2017-10-24T18:05:47.780Z,22.08
2017-10-24T18:08:15.398Z,23.55
2017-10-24T18:10:43.017Z,24.12
2017-10-24T18:13:10.632Z,22.92
2017-10-24T18:15:39.382Z,24.48
2017-10-24T18:18:07.007Z,24.45
2017-10-24T18:20:34.630Z,24.85
2017-10-24T18:23:03.224Z,23.35
2017-10-24T18:25:30.869Z,21.92
2017-10-24T18:27:58.450Z,22.90
2017-10-24T18:30:26.072Z,22.83
2017-10-24T18:32:53.677Z,21.90
2017-10-24T18:35:21.269Z,22.70
2017-10-24T18:37:48.858Z,23.12
2017-10-24T18:40:16.507Z,21.70
2017-10-24T18:42:45.329Z,20.73
2017-10-24T18:45:13.768Z,22.62
2017-10-24T18:47:41.358Z,21.10
2017-10-24T18:50:08.995Z,22.90
2017-10-24T18:52:36.617Z,22.35
2017-10-24T18:55:04.242Z,24.05
2017-10-24T18:57:31.843Z,24.87
2017-10-24T18:59:59.523Z,23.77
2017-10-24T19:02:27.257Z,25.73
2017-10-24T19:04:54.891Z,26.60
2017-10-24T19:07:22.504Z,24.85
2017-10-24T19:09:50.140Z,25.77
2017-10-24T19:12:17.834Z,24.40
2017-10-24T19:14:45.466Z,22.87
2017-10-24T19:17:13.096Z,22.92
2017-10-24T19:19:40.746Z,24.23
2017-10-24T19:22:08.365Z,22.13
2017-10-24T19:24:35.929Z,18.83
2017-10-24T19:27:03.542Z,16.80
2017-10-24T19:29:31.183Z,16.42
2017-10-24T19:31:58.898Z,17.02
2017-10-24T19:34:26.522Z,16.20
2017-10-24T19:36:54.690Z,16.73
2017-10-24T19:39:22.341Z,15.45
2017-10-24T19:41:49.936Z,13.93
2017-10-24T19:44:17.858Z,13.27
2017-10-24T19:46:45.507Z,13.45
2017-10-24T19:49:13.487Z,12.48
2017-10-24T19:51:41.115Z,12.35
2017-10-24T19:54:08.747Z,12.32
2017-10-24T19:56:36.385Z,13.00
2017-10-24T19:59:04.015Z,11.68
2017-10-24T20:01:31.658Z,11.30
2017-10-24T20:04:00.022Z,11.60
2017-10-24T20:06:28.252Z,12.45
2017-10-24T20:08:55.836Z,11.68
2017-10-24T20:11:23.470Z,11.43
2017-10-24T20:13:51.101Z,12.43
2017-10-24T20:16:18.705Z,12.18
2017-10-24T20:18:46.376Z,12.82
2017-10-24T20:21:14.004Z,12.13
2017-10-24T20:23:41.627Z,12.55
2017-10-24T20:26:09.219Z,11.70
2017-10-24T20:28:36.910Z,13.07
2017-10-24T20:31:04.528Z,12.82
2017-10-24T20:33:32.145Z,13.90
2017-10-24T20:35:59.731Z,12.32
2017-10-24T20:38:27.398Z,14.05
2017-10-24T20:40:54.994Z,13.75
2017-10-24T20:43:22.587Z,13.05
2017-10-24T20:45:50.214Z,12.95
2017-10-24T20:48:17.803Z,13.80
2017-10-24T20:50:45.401Z,13.43
2017-10-24T20:53:13.023Z,14.13
2017-10-24T20:55:40.612Z,13.68
2017-10-24T20:58:08.218Z,15.60
2017-10-24T21:00:35.836Z,14.85
2017-10-24T21:03:03.417Z,14.70
2017-10-24T21:05:31.015Z,14.85
2017-10-24T21:07:58.628Z,15.30
2017-10-24T21:10:27.019Z,14.32
2017-10-24T21:12:54.644Z,14.70
2017-10-24T21:15:22.266Z,15.57
2017-10-24T21:17:49.907Z,16.40
2017-10-24T21:20:17.617Z,14.60
2017-10-24T21:22:45.267Z,15.60
2017-10-24T21:25:12.867Z,14.90
2017-10-24T21:27:40.531Z,16.37
2017-10-24T21:30:08.171Z,15.15
2017-10-24T21:32:35.798Z,15.10
2017-10-24T21:35:03.432Z,15.02
2017-10-24T21:37:31.170Z,15.85
2017-10-24T21:39:58.802Z,14.65
2017-10-24T21:42:26.488Z,15.68
2017-10-24T21:44:54.122Z,15.48
2017-10-24T21:47:21.752Z,16.50
2017-10-24T21:49:49.390Z,17.10
2017-10-24T21:52:17.015Z,14.90
2017-10-24T21:54:44.646Z,18.17
2017-10-24T21:57:12.284Z,16.30
2017-10-24T21:59:40.674Z,16.70
2017-10-24T22:02:08.307Z,16.33
2017-10-24T22:04:35.935Z,15.55
2017-10-24T22:07:03.538Z,16.00
2017-10-24T22:09:31.187Z,16.08
2017-10-24T22:11:59.084Z,16.40
2017-10-24T22:14:27.474Z,16.77
2017-10-24T22:16:55.101Z,16.92
2017-10-24T22:19:22.737Z,16.33
2017-10-24T22:21:50.378Z,16.20
2017-10-24T22:24:17.978Z,15.38
2017-10-24T22:26:45.699Z,16.15
2017-10-24T22:29:14.201Z,15.05
2017-10-24T22:31:41.793Z,16.45
2017-10-24T22:34:09.443Z,15.52
2017-10-24T22:36:37.034Z,16.60
2017-10-24T22:39:04.665Z,15.23
2017-10-24T22:41:33.063Z,15.75
2017-10-24T22:44:00.696Z,16.77
2017-10-24T22:46:28.322Z,17.25
2017-10-24T22:48:55.947Z,14.82
2017-10-24T22:51:23.522Z,17.00
2017-10-24T22:53:51.145Z,15.98
2017-10-24T22:56:18.731Z,15.93
2017-10-24T22:58:46.397Z,16.17
2017-10-24T23:01:14.796Z,16.00
2017-10-24T23:03:42.385Z,15.80
2017-10-24T23:06:10.016Z,15.23
2017-10-24T23:08:37.601Z,14.87
2017-10-24T23:11:05.186Z,15.30
2017-10-24T23:13:32.781Z,16.45
2017-10-24T23:16:00.406Z,16.10
2017-10-24T23:18:28.056Z,14.82
2017-10-24T23:20:55.734Z,16.60
2017-10-24T23:23:23.370Z,17.80
2017-10-24T23:25:51.055Z,17.30
2017-10-24T23:28:18.691Z,17.40
2017-10-24T23:30:46.286Z,17.20
2017-10-24T23:33:13.911Z,17.27
2017-10-24T23:35:41.538Z,18.58
2017-10-24T23:38:09.759Z,18.27
2017-10-24T23:40:37.380Z,18.62
2017-10-24T23:43:05.731Z,18.23
2017-10-24T23:45:33.358Z,18.70
2017-10-24T23:48:00.982Z,18.02
2017-10-24T23:50:28.621Z,19.52
2017-10-24T23:52:56.173Z,17.40
2017-10-24T23:55:24.216Z,19.35
2017-10-24T23:57:51.848Z,18.40
